Terminal Aerodrome Forecast
Issued by NWS Charleston, WV

Current Version | Previous Version | Graphics & Text | Print | Product List | Glossary On
Versions: 1 2 3 4 5 6 7 8 9 10 11 12 13 14 15 16 17 18 19 20 21 22 23 24 25
000
FTUS41 KRLX 152323
TAFEKN
TAF
KEKN 152323Z 1600/1624 35003KT P6SM FEW250
     FM160400 00000KT 2SM BR SCT001
     FM160500 00000KT 1/2SM FG OVC001
     FM161300 00000KT 5SM BR SCT002
     FM161330 VRB03KT P6SM SCT040=

USA.gov is the U.S. government's official web portal to all federal, state and local government web resources and services.